Time;durP1;ratioP1;P1;durP2;ratioP2;P2;SDS_P1;SDS_P2;PMS_P1;PMS_P2;Temp;Humidity;BMP_temperature;BMP_pressure;BME280_temperature;BME280_humidity;BME280_pressure;Samples;Min_cycle;Max_cycle;Signal;HPM_P1;HPM_P2
2022/11/21 00:00:45;;;;;;;74.82;69.65;;;;;;;;;;10194082;28;20053;-65
2022/11/21 00:05:42;;;;;;;74.20;69.22;;;;;;;;;;10194047;28;20085;-65
2022/11/21 00:10:39;;;;;;;72.32;67.20;;;;;;;;;;10195865;28;20050;-65
2022/11/21 00:15:35;;;;;;;75.43;70.38;;;;;;;;;;10193561;28;20050;-65
2022/11/21 00:20:31;;;;;;;77.57;72.53;;;;;;;;;;10195347;28;20132;-65
2022/11/21 00:25:28;;;;;;;77.13;72.00;;;;;;;;;;10195283;28;20050;-65
2022/11/21 00:30:24;;;;;;;79.18;73.70;;;;;;;;;;10194762;28;20058;-65
2022/11/21 00:35:20;;;;;;;77.55;72.05;;;;;;;;;;10191438;28;20045;-65
2022/11/21 00:40:17;;;;;;;77.95;72.80;;;;;;;;;;10193323;28;20136;-65
2022/11/21 00:45:13;;;;;;;77.15;71.95;;;;;;;;;;10194365;28;20061;-65
2022/11/21 00:50:16;;;;;;;77.13;71.85;;;;;;;;;;10188526;28;20045;-65
2022/11/21 00:55:12;;;;;;;70.00;65.13;;;;;;;;;;10204002;28;20046;-65
2022/11/21 01:00:09;;;;;;;71.55;66.68;;;;;;;;;;10192313;28;20129;-65
2022/11/21 01:05:05;;;;;;;70.40;65.57;;;;;;;;;;10193829;28;20050;-65
2022/11/21 01:10:02;;;;;;;72.78;68.03;;;;;;;;;;10192689;28;20048;-65
2022/11/21 01:14:58;;;;;;;70.40;65.65;;;;;;;;;;10192450;28;20050;-65
2022/11/21 01:19:55;;;;;;;73.88;68.85;;;;;;;;;;10192863;28;20057;-65
2022/11/21 01:24:51;;;;;;;69.50;64.60;;;;;;;;;;10191917;28;20132;-65
2022/11/21 01:29:48;;;;;;;74.18;69.18;;;;;;;;;;10193366;28;20415;-65
2022/11/21 01:34:44;;;;;;;74.07;68.93;;;;;;;;;;10191977;28;20038;-65
2022/11/21 01:39:40;;;;;;;69.70;64.97;;;;;;;;;;10191810;28;20121;-65
2022/11/21 01:44:47;;;;;;;75.15;70.10;;;;;;;;;;10192501;28;20061;-65
2022/11/21 01:49:44;;;;;;;71.85;67.32;;;;;;;;;;10190744;28;20559;-65
2022/11/21 01:54:43;;;;;;;72.57;67.57;;;;;;;;;;10191018;28;20141;-65
2022/11/21 01:59:45;;;;;;;76.72;71.88;;;;;;;;;;10190642;28;20052;-65
2022/11/21 02:04:42;;;;;;;72.28;67.78;;;;;;;;;;11172517;23;20026;-66
2022/11/21 02:09:39;;;;;;;71.22;66.57;;;;;;;;;;10219584;28;20053;-66
2022/11/21 02:14:37;;;;;;;67.32;63.00;;;;;;;;;;10225206;28;20068;-66
2022/11/21 02:19:38;;;;;;;68.50;64.15;;;;;;;;;;10212820;28;20513;-64
2022/11/21 02:24:39;;;;;;;64.63;60.22;;;;;;;;;;10205356;28;20064;-64
2022/11/21 02:29:36;;;;;;;63.25;59.28;;;;;;;;;;10189491;28;20052;-66
2022/11/21 02:34:32;;;;;;;61.05;57.13;;;;;;;;;;10205691;28;20046;-66
2022/11/21 02:39:34;;;;;;;60.60;56.60;;;;;;;;;;10206394;28;20042;-66
2022/11/21 02:44:50;;;;;;;57.00;53.13;;;;;;;;;;10190664;28;20042;-66
2022/11/21 02:49:54;;;;;;;47.05;43.85;;;;;;;;;;10199460;28;20046;-66
2022/11/21 02:54:50;;;;;;;44.80;41.67;;;;;;;;;;10196573;28;20422;-63
2022/11/21 02:59:47;;;;;;;42.58;39.47;;;;;;;;;;10194488;28;20125;-66
2022/11/21 03:04:44;;;;;;;40.22;37.42;;;;;;;;;;10202326;28;20515;-64
2022/11/21 03:09:40;;;;;;;38.80;35.97;;;;;;;;;;10214388;28;20045;-66
2022/11/21 03:14:36;;;;;;;38.92;36.13;;;;;;;;;;10190667;28;20042;-65
2022/11/21 03:19:32;;;;;;;37.65;34.95;;;;;;;;;;10199457;28;20057;-65
2022/11/21 03:24:29;;;;;;;37.20;34.50;;;;;;;;;;10206815;28;20136;-67
2022/11/21 03:29:25;;;;;;;38.78;35.60;;;;;;;;;;10189721;28;20540;-66
2022/11/21 03:34:21;;;;;;;38.13;35.03;;;;;;;;;;10202506;28;20570;-66
2022/11/21 03:39:18;;;;;;;39.35;36.42;;;;;;;;;;10201181;28;20146;-66
2022/11/21 03:44:14;;;;;;;38.95;36.05;;;;;;;;;;10205940;28;20038;-66
2022/11/21 03:49:11;;;;;;;39.17;36.25;;;;;;;;;;10208290;28;20498;-66
2022/11/21 03:54:07;;;;;;;40.30;37.45;;;;;;;;;;10203251;28;20042;-66
2022/11/21 03:59:04;;;;;;;41.33;38.17;;;;;;;;;;10193614;28;20058;-66
2022/11/21 04:04:00;;;;;;;42.38;39.17;;;;;;;;;;10196961;28;20498;-66
2022/11/21 04:08:56;;;;;;;45.33;42.10;;;;;;;;;;10197623;28;20125;-66
2022/11/21 04:13:53;;;;;;;45.53;42.17;;;;;;;;;;10205057;28;20398;-66
2022/11/21 04:18:49;;;;;;;47.67;44.08;;;;;;;;;;10196495;28;20050;-66
2022/11/21 04:23:45;;;;;;;47.13;43.35;;;;;;;;;;10197921;28;20057;-66
2022/11/21 04:28:41;;;;;;;45.05;41.53;;;;;;;;;;10188948;28;20069;-66
2022/11/21 04:33:38;;;;;;;47.28;43.72;;;;;;;;;;10203778;28;20046;-65
2022/11/21 04:38:35;;;;;;;49.88;46.20;;;;;;;;;;10184065;28;20197;-66
2022/11/21 04:43:31;;;;;;;51.67;47.55;;;;;;;;;;10189902;28;20575;-66
2022/11/21 04:48:27;;;;;;;54.90;50.67;;;;;;;;;;10194525;28;20042;-66
2022/11/21 04:53:23;;;;;;;52.78;48.72;;;;;;;;;;10199529;28;20050;-66
2022/11/21 04:58:19;;;;;;;57.15;52.47;;;;;;;;;;10204430;28;20042;-66
2022/11/21 05:03:16;;;;;;;55.33;51.15;;;;;;;;;;10194349;28;20053;-66
2022/11/21 05:08:12;;;;;;;61.53;57.03;;;;;;;;;;10182907;28;20121;-66
2022/11/21 05:13:20;;;;;;;58.90;54.20;;;;;;;;;;10194466;28;20121;-66
2022/11/21 05:18:18;;;;;;;63.90;59.55;;;;;;;;;;10198835;28;20064;-66
2022/11/21 05:23:14;;;;;;;62.47;57.70;;;;;;;;;;10203030;28;20045;-66
2022/11/21 05:28:11;;;;;;;62.58;58.20;;;;;;;;;;10190521;28;20046;-65
2022/11/21 05:33:07;;;;;;;64.75;60.05;;;;;;;;;;10193514;28;20121;-65
2022/11/21 05:38:03;;;;;;;61.08;56.67;;;;;;;;;;10195561;28;20048;-65
2022/11/21 05:48:15;;;;;;;65.55;60.75;;;;;;;;;;10186176;28;20042;-65
2022/11/21 05:53:11;;;;;;;65.57;60.15;;;;;;;;;;10196220;28;20038;-66
2022/11/21 05:58:09;;;;;;;63.33;57.72;;;;;;;;;;10188977;28;20041;-66
2022/11/21 06:08:22;;;;;;;70.38;64.95;;;;;;;;;;10210704;28;20042;-66
2022/11/21 06:13:21;;;;;;;66.88;61.85;;;;;;;;;;10208576;28;20125;-65
2022/11/21 06:18:18;;;;;;;72.95;67.40;;;;;;;;;;10194650;28;20042;-65
2022/11/21 06:23:14;;;;;;;74.22;69.00;;;;;;;;;;10186174;28;20040;-66
2022/11/21 06:28:10;;;;;;;76.68;70.72;;;;;;;;;;10193070;28;20048;-65
2022/11/21 06:33:07;;;;;;;76.40;70.55;;;;;;;;;;10204748;28;20066;-65
2022/11/21 06:38:03;;;;;;;87.22;80.38;;;;;;;;;;10203680;28;20041;-65
2022/11/21 06:43:00;;;;;;;80.00;73.47;;;;;;;;;;10216871;28;20478;-66
2022/11/21 06:47:56;;;;;;;87.22;80.50;;;;;;;;;;10207115;28;20499;-66
2022/11/21 06:52:52;;;;;;;91.10;84.35;;;;;;;;;;10204473;28;20063;-66
2022/11/21 06:57:49;;;;;;;86.35;79.45;;;;;;;;;;10202006;28;20058;-66
2022/11/21 07:02:45;;;;;;;89.18;82.38;;;;;;;;;;10204376;28;20046;-66
2022/11/21 07:07:41;;;;;;;93.10;85.35;;;;;;;;;;10211612;28;20053;-66
2022/11/21 07:17:52;;;;;;;96.45;88.35;;;;;;;;;;10205329;28;20064;-65
2022/11/21 07:22:52;;;;;;;93.32;85.43;;;;;;;;;;10205223;28;20052;-65
2022/11/21 07:27:48;;;;;;;96.00;87.78;;;;;;;;;;10195969;28;20045;-66
2022/11/21 07:32:44;;;;;;;96.47;87.82;;;;;;;;;;10202162;28;20046;-66
2022/11/21 07:37:40;;;;;;;93.43;85.93;;;;;;;;;;10189285;28;20042;-66
2022/11/21 07:42:37;;;;;;;93.25;86.00;;;;;;;;;;10209284;28;20077;-66
2022/11/21 07:47:33;;;;;;;96.65;89.35;;;;;;;;;;10196817;28;20073;-66
2022/11/21 07:52:29;;;;;;;94.55;87.47;;;;;;;;;;10197619;28;20513;-66
2022/11/21 07:57:25;;;;;;;97.07;89.85;;;;;;;;;;10202407;28;20136;-66
2022/11/21 08:02:23;;;;;;;98.18;90.78;;;;;;;;;;10202855;28;20116;-65
2022/11/21 08:07:20;;;;;;;97.22;89.93;;;;;;;;;;10201065;28;20052;-66
2022/11/21 08:12:16;;;;;;;95.00;87.93;;;;;;;;;;10210096;28;20418;-65
2022/11/21 08:17:13;;;;;;;95.78;87.15;;;;;;;;;;10196775;28;20048;-66
2022/11/21 08:22:09;;;;;;;98.80;90.63;;;;;;;;;;10206941;28;20048;-65
2022/11/21 08:27:05;;;;;;;96.65;88.72;;;;;;;;;;10192660;28;20125;-66
2022/11/21 08:32:01;;;;;;;97.93;89.93;;;;;;;;;;10203296;28;20128;-66
2022/11/21 08:36:58;;;;;;;99.53;91.22;;;;;;;;;;10193670;28;20073;-65
2022/11/21 08:42:04;;;;;;;99.00;90.75;;;;;;;;;;10196305;28;20708;-65
2022/11/21 08:47:01;;;;;;;95.35;87.63;;;;;;;;;;10195809;28;20713;-66
2022/11/21 08:51:57;;;;;;;97.07;89.55;;;;;;;;;;10195471;28;20125;-66
2022/11/21 08:56:53;;;;;;;94.72;87.53;;;;;;;;;;10192296;28;20469;-66
2022/11/21 09:01:51;;;;;;;89.72;82.72;;;;;;;;;;10200100;28;20045;-66
2022/11/21 09:06:47;;;;;;;89.35;82.75;;;;;;;;;;10181697;28;20089;-66
2022/11/21 09:11:44;;;;;;;79.70;73.88;;;;;;;;;;10197329;28;20503;-66
2022/11/21 09:21:57;;;;;;;76.18;70.32;;;;;;;;;;10198738;28;20041;-66
2022/11/21 09:26:54;;;;;;;80.25;74.75;;;;;;;;;;10191303;28;20128;-66
2022/11/21 09:31:50;;;;;;;82.70;76.60;;;;;;;;;;10200270;28;20066;-66
2022/11/21 09:36:46;;;;;;;79.65;73.85;;;;;;;;;;10186256;28;20623;-66
2022/11/21 09:41:51;;;;;;;77.18;71.38;;;;;;;;;;10214380;28;20057;-66
2022/11/21 09:46:50;;;;;;;66.53;61.33;;;;;;;;;;10203121;28;20042;-66
2022/11/21 09:51:46;;;;;;;50.90;46.80;;;;;;;;;;10201596;28;20153;-65
2022/11/21 09:56:42;;;;;;;48.53;44.35;;;;;;;;;;10206197;28;20689;-66
2022/11/21 10:01:38;;;;;;;40.78;37.38;;;;;;;;;;10199159;28;20125;-66
2022/11/21 10:06:39;;;;;;;40.63;37.05;;;;;;;;;;10190886;28;20069;-66
2022/11/21 10:11:35;;;;;;;37.17;33.88;;;;;;;;;;10198188;28;20058;-65
2022/11/21 10:16:59;;;;;;;37.08;33.55;;;;;;;;;;10193932;28;20132;-66
2022/11/21 10:22:06;;;;;;;36.70;33.28;;;;;;;;;;10193030;28;20045;-66
2022/11/21 10:27:10;;;;;;;35.05;31.88;;;;;;;;;;10193607;28;20213;-65
2022/11/21 10:32:12;;;;;;;34.17;31.13;;;;;;;;;;10202262;28;20041;-66
2022/11/21 10:37:13;;;;;;;32.15;29.10;;;;;;;;;;10184775;28;20124;-66
2022/11/21 10:42:14;;;;;;;28.92;26.33;;;;;;;;;;10206561;28;20121;-65
2022/11/21 10:47:26;;;;;;;27.92;25.48;;;;;;;;;;10193133;28;20081;-66
2022/11/21 10:52:24;;;;;;;25.92;23.63;;;;;;;;;;10203696;28;20181;-66
2022/11/21 10:57:20;;;;;;;23.38;21.08;;;;;;;;;;10196161;28;20045;-66
2022/11/21 11:02:17;;;;;;;24.63;22.33;;;;;;;;;;10201435;28;20045;-66
2022/11/21 11:07:23;;;;;;;24.73;22.48;;;;;;;;;;10196848;28;20038;-66
2022/11/21 11:12:22;;;;;;;23.83;21.48;;;;;;;;;;10207958;28;20037;-66
2022/11/21 11:17:26;;;;;;;21.67;19.58;;;;;;;;;;10192606;28;20045;-66
2022/11/21 11:22:25;;;;;;;19.75;18.05;;;;;;;;;;10209071;28;20049;-66
2022/11/21 11:27:28;;;;;;;19.92;18.02;;;;;;;;;;10193015;28;20052;-66
2022/11/21 11:32:24;;;;;;;;;;;;;;;;;;10209718;28;20048;-66
2022/11/21 11:37:28;;;;;;;18.85;15.70;;;;;;;;;;10193958;28;19930;-66
2022/11/21 11:47:46;;;;;;;15.05;13.52;;;;;;;;;;10195734;28;20511;-66
2022/11/21 11:52:55;;;;;;;14.98;13.48;;;;;;;;;;10206298;28;20054;-66
2022/11/21 11:57:53;;;;;;;15.07;12.68;;;;;;;;;;10193966;28;20049;-66
2022/11/21 12:02:55;;;;;;;13.77;12.40;;;;;;;;;;10194603;28;20058;-66
2022/11/21 12:08:24;;;;;;;11.90;10.77;;;;;;;;;;10201328;28;20080;-66
2022/11/21 12:13:38;;;;;;;11.27;10.25;;;;;;;;;;10142349;28;20456;-66
2022/11/21 12:18:53;;;;;;;14.55;13.02;;;;;;;;;;10193492;28;20047;-66
2022/11/21 12:23:51;;;;;;;14.52;13.20;;;;;;;;;;10205760;28;20474;-66
2022/11/21 12:29:06;;;;;;;12.65;11.45;;;;;;;;;;10197071;28;20053;-66
2022/11/21 12:34:21;;;;;;;14.15;12.38;;;;;;;;;;10195011;28;20137;-66
2022/11/21 12:39:25;;;;;;;15.00;13.05;;;;;;;;;;10200265;28;20046;-66
2022/11/21 12:44:25;;;;;;;14.57;13.18;;;;;;;;;;10214064;28;20396;-66
2022/11/21 12:54:59;;;;;;;17.55;12.82;;;;;;;;;;10188778;28;20040;-66
2022/11/21 12:59:55;;;;;;;15.90;12.10;;;;;;;;;;10198340;28;20043;-66
2022/11/21 13:04:53;;;;;;;14.73;12.50;;;;;;;;;;10195307;28;20053;-66
2022/11/21 13:09:51;;;;;;;17.40;11.52;;;;;;;;;;10204847;28;20419;-66
2022/11/21 13:15:11;;;;;;;12.38;11.07;;;;;;;;;;10197275;28;20038;-66
2022/11/21 13:20:23;;;;;;;13.35;11.30;;;;;;;;;;10197676;28;20049;-66
2022/11/21 13:25:31;;;;;;;14.18;12.10;;;;;;;;;;10194652;28;20049;-66
2022/11/21 13:30:27;;;;;;;13.05;11.65;;;;;;;;;;10197238;28;20048;-66
2022/11/21 13:35:24;;;;;;;13.45;11.70;;;;;;;;;;10191816;28;20076;-66
2022/11/21 13:40:26;;;;;;;14.38;12.02;;;;;;;;;;10208386;28;20067;-66
2022/11/21 13:45:39;;;;;;;14.77;12.23;;;;;;;;;;10197388;28;20050;-66
2022/11/21 13:50:35;;;;;;;12.38;11.07;;;;;;;;;;10197823;28;20050;-66
2022/11/21 13:55:41;;;;;;;14.30;12.38;;;;;;;;;;10187023;28;20084;-66
2022/11/21 14:00:55;;;;;;;14.85;13.18;;;;;;;;;;10196891;28;20192;-66
2022/11/21 14:05:53;;;;;;;14.82;12.38;;;;;;;;;;10182825;28;20053;-66
2022/11/21 14:10:51;;;;;;;15.98;13.13;;;;;;;;;;10201763;28;20047;-66
2022/11/21 14:16:11;;;;;;;14.95;13.20;;;;;;;;;;10183463;28;20046;-65
2022/11/21 14:21:17;;;;;;;14.48;12.88;;;;;;;;;;10187647;28;20038;-65
2022/11/21 14:26:16;;;;;;;15.57;14.02;;;;;;;;;;10183752;28;20418;-65
2022/11/21 14:31:13;;;;;;;13.98;11.88;;;;;;;;;;10192258;28;20046;-65
2022/11/21 14:36:13;;;;;;;15.95;13.45;;;;;;;;;;10185788;28;20057;-65
2022/11/21 14:41:25;;;;;;;15.25;13.82;;;;;;;;;;10209994;28;20073;-65
2022/11/21 14:46:21;;;;;;;15.95;14.40;;;;;;;;;;10194735;28;20068;-65
2022/11/21 14:51:19;;;;;;;15.52;13.93;;;;;;;;;;10197186;28;20052;-65
2022/11/21 14:56:26;;;;;;;16.05;14.65;;;;;;;;;;10187569;28;20045;-65
2022/11/21 15:01:23;;;;;;;16.17;14.63;;;;;;;;;;10199874;28;20147;-65
2022/11/21 15:06:20;;;;;;;16.05;14.52;;;;;;;;;;10189911;28;20046;-65
2022/11/21 15:11:16;;;;;;;16.25;14.77;;;;;;;;;;10200456;28;20058;-65
2022/11/21 15:16:13;;;;;;;16.30;14.75;;;;;;;;;;10197697;28;20100;-65
2022/11/21 15:21:13;;;;;;;20.98;16.77;;;;;;;;;;10198756;28;20050;-64
2022/11/21 15:26:29;;;;;;;18.88;17.08;;;;;;;;;;10195411;28;20042;-65
2022/11/21 15:31:26;;;;;;;18.92;17.23;;;;;;;;;;10208356;28;20495;-65
2022/11/21 15:36:22;;;;;;;19.63;17.83;;;;;;;;;;10197933;28;20049;-65
2022/11/21 15:41:19;;;;;;;21.38;18.80;;;;;;;;;;10217195;28;20078;-65
2022/11/21 15:46:22;;;;;;;19.85;18.02;;;;;;;;;;10210104;28;20045;-65
2022/11/21 15:51:20;;;;;;;21.10;19.00;;;;;;;;;;10210131;28;20156;-65
2022/11/21 15:56:36;;;;;;;21.13;19.15;;;;;;;;;;10200725;28;20045;-65
2022/11/21 16:01:33;;;;;;;23.52;21.30;;;;;;;;;;10204674;28;20046;-64
2022/11/21 16:06:29;;;;;;;23.85;21.55;;;;;;;;;;10185554;28;20106;-65
2022/11/21 16:11:27;;;;;;;23.42;21.30;;;;;;;;;;10208023;28;20145;-65
2022/11/21 16:16:24;;;;;;;22.30;20.33;;;;;;;;;;10192187;28;20047;-65
2022/11/21 16:21:21;;;;;;;21.70;19.88;;;;;;;;;;10196830;28;20046;-65
2022/11/21 16:26:18;;;;;;;21.65;19.75;;;;;;;;;;10198656;28;20504;-65
2022/11/21 16:31:21;;;;;;;22.25;20.25;;;;;;;;;;10193170;28;20049;-65
2022/11/21 16:36:19;;;;;;;23.20;21.30;;;;;;;;;;10188543;28;20125;-65
2022/11/21 16:41:16;;;;;;;23.27;21.10;;;;;;;;;;10206710;28;20056;-65
2022/11/21 16:46:13;;;;;;;22.88;20.88;;;;;;;;;;10192559;28;20041;-65
2022/11/21 16:51:11;;;;;;;23.17;21.00;;;;;;;;;;10196502;28;20137;-65
2022/11/21 16:56:08;;;;;;;22.48;20.50;;;;;;;;;;10178162;28;20124;-65
2022/11/21 17:01:09;;;;;;;23.63;21.60;;;;;;;;;;10196188;28;20410;-65
2022/11/21 17:06:06;;;;;;;22.53;20.63;;;;;;;;;;10194134;28;20049;-65
2022/11/21 17:11:18;;;;;;;24.00;22.00;;;;;;;;;;10209186;28;20042;-65
2022/11/21 17:16:15;;;;;;;24.00;22.00;;;;;;;;;;10191139;28;20131;-65
2022/11/21 17:21:13;;;;;;;25.15;22.90;;;;;;;;;;10201199;28;20057;-65
2022/11/21 17:26:10;;;;;;;24.10;21.95;;;;;;;;;;10189076;28;20415;-65
2022/11/21 17:31:11;;;;;;;24.98;22.67;;;;;;;;;;10199158;28;20061;-65
2022/11/21 17:36:10;;;;;;;25.75;23.35;;;;;;;;;;10186559;28;20057;-65
2022/11/21 17:41:08;;;;;;;25.35;23.15;;;;;;;;;;10210779;28;20045;-65
2022/11/21 17:46:15;;;;;;;25.67;23.25;;;;;;;;;;10187924;28;20046;-65
2022/11/21 17:51:16;;;;;;;25.23;22.88;;;;;;;;;;10204568;28;20495;-65
2022/11/21 17:56:14;;;;;;;27.55;24.90;;;;;;;;;;10203274;28;20045;-65
2022/11/21 18:01:17;;;;;;;25.95;23.40;;;;;;;;;;10206842;28;20048;-65
2022/11/21 18:06:15;;;;;;;27.27;24.38;;;;;;;;;;10185143;28;20044;-65
2022/11/21 18:11:13;;;;;;;28.92;25.98;;;;;;;;;;10196847;28;20541;-65
2022/11/21 18:16:11;;;;;;;30.17;27.00;;;;;;;;;;10190108;28;20132;-65
2022/11/21 18:21:09;;;;;;;31.38;28.15;;;;;;;;;;10205238;28;20716;-65
2022/11/21 18:26:13;;;;;;;30.83;27.55;;;;;;;;;;10184905;28;20046;-65
2022/11/21 18:31:11;;;;;;;31.58;28.40;;;;;;;;;;10199189;28;20048;-65
2022/11/21 18:36:08;;;;;;;34.78;31.25;;;;;;;;;;10198065;28;20049;-65
2022/11/21 18:41:05;;;;;;;33.95;30.50;;;;;;;;;;10212623;28;20057;-65
2022/11/21 18:46:02;;;;;;;36.30;32.83;;;;;;;;;;10195685;28;20052;-65
2022/11/21 18:51:09;;;;;;;36.72;32.88;;;;;;;;;;10212742;28;20041;-68
2022/11/21 18:56:12;;;;;;;38.72;34.92;;;;;;;;;;10191481;28;20049;-67
2022/11/21 19:01:10;;;;;;;40.35;36.25;;;;;;;;;;10205235;28;20041;-67
2022/11/21 19:06:07;;;;;;;45.13;40.10;;;;;;;;;;10191491;28;20508;-68
2022/11/21 19:11:04;;;;;;;47.47;40.67;;;;;;;;;;10210577;28;20048;-68
2022/11/21 19:16:01;;;;;;;49.92;42.40;;;;;;;;;;10209426;28;20483;-68
2022/11/21 19:21:01;;;;;;;47.13;42.15;;;;;;;;;;10198643;28;20488;-68
2022/11/21 19:26:08;;;;;;;49.97;42.88;;;;;;;;;;10192272;28;20042;-68
2022/11/21 19:31:06;;;;;;;48.50;43.13;;;;;;;;;;10213481;28;20128;-67
2022/11/21 19:36:04;;;;;;;54.55;49.15;;;;;;;;;;10195428;28;20053;-67
2022/11/21 19:41:14;;;;;;;50.90;45.80;;;;;;;;;;10213879;28;20438;-68
2022/11/21 19:46:11;;;;;;;50.88;45.78;;;;;;;;;;10204574;28;20046;-68
2022/11/21 19:51:08;;;;;;;53.92;48.72;;;;;;;;;;10201819;28;20117;-67
2022/11/21 19:56:08;;;;;;;54.85;49.30;;;;;;;;;;10200539;28;20041;-68
2022/11/21 20:01:25;;;;;;;55.58;50.22;;;;;;;;;;10213790;28;20048;-68
2022/11/21 20:06:24;;;;;;;53.30;48.05;;;;;;;;;;10172602;28;20652;-67
2022/11/21 20:11:21;;;;;;;52.28;47.40;;;;;;;;;;10198055;28;20072;-68
2022/11/21 20:16:19;;;;;;;51.72;46.78;;;;;;;;;;10210686;28;20057;-67
2022/11/21 20:21:16;;;;;;;51.47;46.40;;;;;;;;;;10194949;28;20050;-67
2022/11/21 20:26:13;;;;;;;51.75;47.17;;;;;;;;;;10197584;28;20062;-68
2022/11/21 20:31:10;;;;;;;49.53;44.78;;;;;;;;;;10214069;28;20715;-67
2022/11/21 20:36:08;;;;;;;50.90;46.45;;;;;;;;;;10193577;28;20153;-68
2022/11/21 20:41:04;;;;;;;50.80;46.30;;;;;;;;;;10214984;28;20037;-68
2022/11/21 20:46:02;;;;;;;51.75;47.20;;;;;;;;;;10203921;28;20145;-67
2022/11/21 20:51:13;;;;;;;;;;;;;;;;;;10189772;28;20069;-68
2022/11/21 20:56:33;;;;;;;51.30;46.25;;;;;;;;;;10196028;28;20389;-67
2022/11/21 21:01:30;;;;;;;51.42;46.85;;;;;;;;;;10196267;28;20400;-67
2022/11/21 21:06:27;;;;;;;50.53;46.15;;;;;;;;;;10190991;28;20046;-68
2022/11/21 21:11:23;;;;;;;48.95;44.70;;;;;;;;;;10205219;28;20080;-68
2022/11/21 21:16:42;;;;;;;51.40;46.85;;;;;;;;;;10187336;28;20049;-68
2022/11/21 21:21:40;;;;;;;49.95;45.72;;;;;;;;;;10199202;28;20527;-68
2022/11/21 21:26:41;;;;;;;51.25;46.72;;;;;;;;;;10192940;28;20049;-68
2022/11/21 21:31:38;;;;;;;51.50;47.20;;;;;;;;;;10180377;28;20085;-67
2022/11/21 21:36:42;;;;;;;52.40;47.85;;;;;;;;;;10189652;28;20583;-68
2022/11/21 21:41:44;;;;;;;52.38;47.83;;;;;;;;;;10214568;28;20068;-68
2022/11/21 21:46:42;;;;;;;51.15;46.63;;;;;;;;;;10199827;28;20061;-68
2022/11/21 21:51:39;;;;;;;51.75;47.30;;;;;;;;;;10209277;28;20049;-68
2022/11/21 21:56:35;;;;;;;53.40;48.83;;;;;;;;;;10204767;28;20559;-68
2022/11/21 22:01:31;;;;;;;53.90;49.22;;;;;;;;;;10205403;28;20076;-67
2022/11/21 22:06:28;;;;;;;55.75;51.15;;;;;;;;;;10182243;28;20582;-68
2022/11/21 22:11:26;;;;;;;53.42;49.00;;;;;;;;;;10208122;28;20074;-67
2022/11/21 22:16:22;;;;;;;56.95;52.17;;;;;;;;;;10192374;28;20039;-67
2022/11/21 22:21:20;;;;;;;55.40;50.60;;;;;;;;;;10204799;28;20060;-68
2022/11/21 22:26:16;;;;;;;54.30;49.80;;;;;;;;;;10191134;28;20053;-67
2022/11/21 22:31:13;;;;;;;53.28;49.03;;;;;;;;;;10200040;28;20415;-68
2022/11/21 22:36:11;;;;;;;45.15;41.40;;;;;;;;;;10189592;28;20077;-67
2022/11/21 22:41:15;;;;;;;47.08;42.90;;;;;;;;;;10207412;28;20117;-68
2022/11/21 22:46:11;;;;;;;45.20;41.17;;;;;;;;;;10198799;28;20575;-67
2022/11/21 22:51:10;;;;;;;43.85;40.28;;;;;;;;;;10196555;28;20045;-67
2022/11/21 22:56:08;;;;;;;39.95;36.53;;;;;;;;;;10188956;28;20041;-67
2022/11/21 23:01:12;;;;;;;38.60;35.15;;;;;;;;;;10195946;28;20447;-68
2022/11/21 23:06:09;;;;;;;38.70;35.00;;;;;;;;;;10200388;28;20069;-67
2022/11/21 23:11:07;;;;;;;36.45;32.95;;;;;;;;;;10209679;28;20129;-68
2022/11/21 23:16:05;;;;;;;35.22;31.90;;;;;;;;;;10203588;28;20518;-68
2022/11/21 23:21:01;;;;;;;34.28;31.13;;;;;;;;;;10195147;28;20120;-67
2022/11/21 23:25:58;;;;;;;36.42;33.10;;;;;;;;;;10195919;28;20087;-68
2022/11/21 23:30:54;;;;;;;34.33;31.05;;;;;;;;;;10218929;28;20511;-67
2022/11/21 23:35:50;;;;;;;35.75;32.38;;;;;;;;;;10200298;28;20042;-68
2022/11/21 23:40:47;;;;;;;38.97;35.38;;;;;;;;;;10216152;28;20044;-67
2022/11/21 23:45:48;;;;;;;35.55;32.25;;;;;;;;;;10204932;28;20124;-67
2022/11/21 23:50:45;;;;;;;38.80;34.97;;;;;;;;;;10200338;28;20065;-68
2022/11/21 23:55:42;;;;;;;37.47;33.85;;;;;;;;;;10196204;28;20141;-67
